Item Display Status Humidity-temperature Sensor

Elevation Above Sea Level: 3 m

 

Deployed Sensor

  • Serial Number: 20224933
  • NDBC Property Number: 42150
  • Start Date: 1/26/2023 (14:34:47 Z)
  • End Date: Currently Active
Relative Humidity [%]     6 entries per hour
Showing data from 5/29/2023 (19:00:00 Z) to 5/28/2023 (00:00:01 Z)
Previous Next [ Day | 3-Days | 7-Days ]
First Last
Prev [ Day | 3-Days | 7-Days ] Next
First Last

Start Time:     :
End Time:     :     
Time (in GMT) :00 :50 :40 :30 :20 :10
Previous Next [ Day | 3-Days | 7-Days ]
First Last
Prev [ Day | 3-Days | 7-Days ] Next
First Last


123 => good data
MM => data is determined as missing
-- => data not received/configured
Back to Top Back to Top
5/29/2023 19:00 to 18:10 71.15 69.25 71.23 71.17 70.45 72.49
5/29/2023 18:00 to 17:10 71.29 73.38 73.54 74.08 74.56 76.22
5/29/2023 17:00 to 16:10 75.78 77.42 76.10 76.52 78.06 78.08
5/29/2023 16:00 to 15:10 78.99 77.66 77.56 75.98 76.34 75.48
5/29/2023 15:00 to 14:10 74.40 77.30 76.48 77.50 78.42 78.00
5/29/2023 14:00 to 13:10 76.40 76.96 78.00 78.62 79.61 78.87
5/29/2023 13:00 to 12:10 78.99 79.21 78.64 77.64 76.92 76.64
5/29/2023 12:00 to 11:10 78.12 77.60 77.30 78.56 78.36 78.30
5/29/2023 11:00 to 10:10 76.62 77.66 77.48 76.82 78.36 78.32
5/29/2023 10:00 to 9:10 78.75 78.58 78.18 78.71 79.73 80.39
5/29/2023 09:00 to 8:10 79.93 80.03 80.25 80.49 79.93 79.91
5/29/2023 08:00 to 7:10 79.15 77.58 78.46 77.70 77.42 77.52
5/29/2023 07:00 to 6:10 77.58 78.04 77.70 77.46 76.68 75.74
5/29/2023 06:00 to 5:10 75.48 76.12 76.24 75.44 75.42 75.88
5/29/2023 05:00 to 4:10 74.92 74.26 75.58 76.08 76.96 77.26
5/29/2023 04:00 to 3:10 77.14 77.60 76.80 77.32 77.28 78.44
5/29/2023 03:00 to 2:10 78.30 78.22 78.24 78.18 77.16 76.84
5/29/2023 02:00 to 1:10 77.84 77.24 77.98 78.54 77.70 77.60
5/29/2023 01:00 to 0:10 78.04 78.16 77.74 79.47 78.71 77.74
5/29/2023 00:00 to 23:10 76.98 77.10 77.56 76.56 76.02 76.74
5/28/2023 23:00 to 22:10 76.60 76.42 75.52 74.76 74.12 74.90
5/28/2023 22:00 to 21:10 73.90 74.46 74.24 74.20 75.40 75.66
5/28/2023 21:00 to 20:10 73.58 74.78 76.02 76.86 76.10 76.62
5/28/2023 20:00 to 19:10 76.66 78.97 78.87 79.09 78.60 79.17
5/28/2023 19:00 to 18:10 79.11 79.55 79.15 80.45 80.69 80.05
5/28/2023 18:00 to 17:10 80.53 80.67 79.93 81.05 80.15 79.91
5/28/2023 17:00 to 16:10 80.05 79.91 80.89 80.19 80.19 80.15
5/28/2023 16:00 to 15:10 80.61 80.89 80.61 80.85 80.09 80.35
5/28/2023 15:00 to 14:10 80.69 81.23 80.87 81.67 81.11 81.59
5/28/2023 14:00 to 13:10 80.69 80.83 80.91 80.61 80.31 81.41
5/28/2023 13:00 to 12:10 80.57 81.25 81.49 81.63 81.09 82.35
5/28/2023 12:00 to 11:10 81.51 82.11 82.79 82.19 83.03 83.25
5/28/2023 11:00 to 10:10 83.33 83.15 83.19 82.73 82.71 83.05
5/28/2023 10:00 to 9:10 82.87 82.11 82.35 83.03 82.59 82.31
5/28/2023 09:00 to 8:10 82.53 82.89 82.31 82.47 83.05 82.89
5/28/2023 08:00 to 7:10 82.41 81.31 81.79 81.89 82.41 83.33
5/28/2023 07:00 to 6:10 81.87 81.61 81.69 81.31 82.17 82.49
5/28/2023 06:00 to 5:10 82.27 81.73 80.87 81.15 81.33 81.17
5/28/2023 05:00 to 4:10 81.31 82.45 81.99 82.43 82.91 83.35
5/28/2023 04:00 to 3:10 82.57 83.01 83.77 83.01 83.03 81.89
5/28/2023 03:00 to 2:10 82.31 82.79 82.35 82.91 82.19 81.35
5/28/2023 02:00 to 1:10 82.23 82.07 82.93 82.37 82.45 82.57
5/28/2023 01:00 to 0:10 82.85 83.91 82.99 82.93 83.69 83.53

 

 

 

Air Temperature [°C]     6 entries per hour
Showing data from 5/29/2023 (19:00:00 Z) to 5/28/2023 (00:00:01 Z)
Previous Next [ Day | 3-Days | 7-Days ]
First Last
Prev [ Day | 3-Days | 7-Days ] Next
First Last

Start Time:     :
End Time:     :     
Time (in GMT) :00 :50 :40 :30 :20 :10
Previous Next [ Day | 3-Days | 7-Days ]
First Last
Prev [ Day | 3-Days | 7-Days ] Next
First Last


123 => good data
MM => data is determined as missing
-- => data not received/configured
Back to Top Back to Top
5/29/2023 19:00 to 18:10 26.51 26.40 26.51 26.59 26.42 26.61
5/29/2023 18:00 to 17:10 26.44 26.38 26.33 26.18 26.17 26.32
5/29/2023 17:00 to 16:10 26.08 26.09 25.92 26.00 25.95 26.09
5/29/2023 16:00 to 15:10 26.11 26.09 26.09 26.08 26.06 26.05
5/29/2023 15:00 to 14:10 26.11 26.05 25.92 25.93 26.14 26.00
5/29/2023 14:00 to 13:10 26.12 26.18 25.93 25.90 25.99 25.80
5/29/2023 13:00 to 12:10 25.83 25.91 25.85 26.02 25.88 25.82
5/29/2023 12:00 to 11:10 25.85 26.09 25.87 25.84 25.86 25.82
5/29/2023 11:00 to 10:10 25.99 25.84 25.74 25.83 25.75 25.70
5/29/2023 10:00 to 9:10 25.68 25.77 25.59 25.71 25.70 25.68
5/29/2023 09:00 to 8:10 25.55 25.62 25.66 25.81 25.65 25.72
5/29/2023 08:00 to 7:10 25.81 25.78 25.99 25.89 25.86 25.95
5/29/2023 07:00 to 6:10 25.89 26.11 26.11 26.16 26.14 26.24
5/29/2023 06:00 to 5:10 26.06 26.16 26.16 26.13 26.20 26.19
5/29/2023 05:00 to 4:10 26.16 25.99 26.26 26.15 26.10 26.06
5/29/2023 04:00 to 3:10 26.00 26.01 25.99 26.00 25.99 25.91
5/29/2023 03:00 to 2:10 25.98 26.13 25.98 26.06 26.05 25.98
5/29/2023 02:00 to 1:10 26.04 26.06 26.17 26.17 26.05 26.07
5/29/2023 01:00 to 0:10 26.10 26.05 26.00 26.10 26.15 26.16
5/29/2023 00:00 to 23:10 26.23 26.26 26.35 26.34 26.50 26.55
5/28/2023 23:00 to 22:10 26.54 26.52 26.54 26.69 26.69 26.65
5/28/2023 22:00 to 21:10 26.56 26.63 26.68 26.50 26.63 26.52
5/28/2023 21:00 to 20:10 26.52 26.46 26.54 26.59 26.34 26.42
5/28/2023 20:00 to 19:10 26.45 26.60 26.53 26.38 26.32 26.42
5/28/2023 19:00 to 18:10 26.30 26.37 26.26 26.27 26.46 26.33
5/28/2023 18:00 to 17:10 26.25 26.31 26.20 26.27 26.30 26.26
5/28/2023 17:00 to 16:10 26.32 26.33 26.45 26.32 26.22 26.27
5/28/2023 16:00 to 15:10 26.27 26.37 26.15 26.26 26.28 26.23
5/28/2023 15:00 to 14:10 26.27 26.25 26.08 26.28 26.11 26.30
5/28/2023 14:00 to 13:10 26.18 26.22 26.14 26.10 26.18 26.24
5/28/2023 13:00 to 12:10 26.20 26.09 26.23 26.06 25.99 26.04
5/28/2023 12:00 to 11:10 26.02 26.08 26.09 26.08 26.06 25.99
5/28/2023 11:00 to 10:10 25.99 25.98 26.00 26.05 26.03 25.92
5/28/2023 10:00 to 9:10 26.05 26.00 26.12 25.96 26.11 26.05
5/28/2023 09:00 to 8:10 26.04 26.06 26.02 26.04 26.22 26.34
5/28/2023 08:00 to 7:10 26.22 26.15 26.20 26.21 26.10 26.12
5/28/2023 07:00 to 6:10 26.24 26.27 26.22 26.28 26.21 26.33
5/28/2023 06:00 to 5:10 26.30 26.31 26.20 26.25 26.34 26.34
5/28/2023 05:00 to 4:10 26.39 26.39 26.42 26.20 26.28 26.30
5/28/2023 04:00 to 3:10 26.34 26.32 26.26 26.29 26.28 26.32
5/28/2023 03:00 to 2:10 26.39 26.24 26.60 26.34 26.43 26.44
5/28/2023 02:00 to 1:10 26.39 26.36 26.54 26.41 26.36 26.54
5/28/2023 01:00 to 0:10 26.48 26.49 26.37 26.28 26.45 26.39